VE2TST Weather Reports


time (UTC)temp
F
wind
direction
speed
knots
gust
knots
rain 1hr
in
rain 24hr
in
rain mn
in
humidity
%
barometer
mb
20260507015332 45 0.0 0.0 0.00 0.00 0.00 99
20260507014311 45 0.0 0.0 0.00 0.00 0.00 99
20260507013312 46 1.7 1.7 0.00 0.00 0.00 99
20260507012313 46 1.7 1.7 0.00 0.00 0.00 99
20260507011311 46 0.0 0.0 0.00 0.00 0.00 99
20260507010311 46 0.0 0.0 0.00 0.00 0.00 99
20260507005313 46 1.7 1.7 0.00 0.00 0.00 99
20260507004313 46 0.0 0.0 0.00 0.00 0.00 99
20260507003311 46 0.0 0.0 0.00 0.00 0.00 99
20260507002310 46 0.0 0.0 0.00 0.00 0.00 99
20260507001312 46 0.0 0.0 0.00 0.00 0.00 99
20260507000314 46 0.0 0.0 0.00 0.00 0.00 99
20260506235309 47 0.9 0.9 0.00 0.00 0.00 99
20260506234312 47 1.7 1.7 0.00 0.00 0.00 99
20260506233311 47 0.0 0.0 0.00 0.00 0.00 99
20260506232311 48 0.9 0.9 0.00 0.00 0.00 99
20260506231313 48 0.9 0.9 0.00 0.00 0.00 99
20260506230331 48 0.9 0.9 0.00 0.00 0.00 99
20260506225311 49 0.9 0.9 0.00 0.00 0.00 99
20260506224311 49 1.7 1.7 0.00 0.00 0.00 99
20260506222813 50 0.0 0.0 0.00 0.00 0.00 99
20260506221811 50 0.9 0.9 0.00 0.00 0.00 99
20260506220833 50 2.6 2.6 0.00 0.00 0.00 99
20260506215813 51 0.9 0.9 0.00 0.00 0.00 99
20260506214811 51 0.0 0.0 0.00 0.00 0.00 99
20260506213831 51 0.9 0.9 0.00 0.00 0.00 99
20260506212812 51 0.9 0.9 0.00 0.00 0.00 99
20260506211830 50 0.9 0.9 0.00 0.00 0.00 99
20260506210830 48 0.9 0.9 0.00 0.00 0.00 99
20260506205812 49 0.0 0.0 0.00 0.00 0.00 99
20260506204813 48 0.0 0.0 0.00 0.00 0.00 99
20260506203811 49 0.0 0.0 0.00 0.00 0.00 99
20260506202813 49 0.0 0.0 0.00 0.00 0.00 99
20260506201811 50 0.0 0.0 0.00 0.00 0.00 99
20260506200832 50 0.0 0.0 0.00 0.00 0.00 99
20260506195812 50 0.0 0.0 0.00 0.00 0.00 99
20260506194812 50 0.9 0.9 0.00 0.00 0.00 99
20260506193811 49 0.0 0.0 0.00 0.00 0.00 99
20260506192811 49 0.0 0.0 0.00 0.00 0.00 99
20260506191811 49 0.0 0.0 0.00 0.00 0.00 99
20260506190811 49 0.0 0.0 0.00 0.00 0.00 99
20260506185831 50 1.7 1.7 0.00 0.00 0.00 99
20260506184811 51 0.0 0.0 0.00 0.00 0.00 99
20260506183831 50 0.0 0.0 0.00 0.00 0.00 99
20260506182830 51 0.9 0.9 0.00 0.00 0.00 99
20260506181831 50 0.0 0.0 0.00 0.00 0.00 99
20260506180811 51 0.0 0.0 0.00 0.00 0.00 99
20260506175811 50 0.0 0.0 0.00 0.00 0.00 99
20260506174813 50 0.0 0.0 0.00 0.00 0.00 99
20260506173832 50 0.0 0.0 0.00 0.00 0.00 99
20260506172810 48 0.0 0.0 0.00 0.00 0.00 99
20260506171812 47 0.0 0.0 0.00 0.00 0.00 99
20260506170810 47 0.0 0.0 0.00 0.00 0.00 99
20260506170310 46 0.0 0.0 0.00 0.00 0.00 99
20260506164812 47 0.0 0.0 0.00 0.00 0.00 99
20260506163810 47 0.0 0.0 0.00 0.00 0.00 99
20260506162831 47 0.0 0.0 0.00 0.00 0.00 99
20260506161812 47 0.0 0.0 0.00 0.00 0.00 99
20260506160810 46 0.0 0.0 0.00 0.00 0.00 99
20260506155812 46 0.0 0.0 0.00 0.00 0.00 99
20260506154830 45 0.0 0.0 0.00 0.00 0.00 99
20260506154312 44 0.0 0.0 0.00 0.00 0.00 99
20260506152812 44 0.0 0.0 0.00 0.00 0.00 99
20260506151830 44 0.0 0.0 0.00 0.00 0.00 99
20260506150811 44 0.0 0.0 0.00 0.00 0.00 99
20260506145811 44 0.0 0.0 0.00 0.00 0.00 99
20260506144813 44 0.0 0.0 0.00 0.00 0.00 99
20260506143811 44 0.0 0.0 0.00 0.00 0.00 99
20260506141311 44 1.7 4.3 0.00 0.00 0.00 99